Time;durP1;ratioP1;P1;durP2;ratioP2;P2;SDS_P1;SDS_P2;PMS_P1;PMS_P2;Temp;Humidity;BMP_temperature;BMP_pressure;BME280_temperature;BME280_humidity;BME280_pressure;Samples;Min_cycle;Max_cycle;Signal;HPM_P1;HPM_P2
2021/04/19 00:00:33;;;;;;;;;;;;;;;20.69;49.09;101652.94;2083869;28;3869;-75
2021/04/19 00:01:34;;;;;;;;;;;;;;;20.69;49.20;101655.78;2084598;28;4183;-79
2021/04/19 00:02:35;;;;;;;;;;;;;;;20.70;48.97;101654.63;2083975;28;3754;-74
2021/04/19 00:03:36;;;;;;;;;;;;;;;20.70;49.22;101648.94;2082086;28;3875;-75
2021/04/19 00:04:38;;;;;;;;;;;;;;;20.70;49.04;101651.78;2083901;28;3873;-83
2021/04/19 00:05:39;;;;;;;;;;;;;;;20.69;49.03;101653.78;2083451;28;3858;-79
2021/04/19 00:06:40;;;;;;;;;;;;;;;20.68;49.19;101649.28;2083445;28;4042;-79
2021/04/19 00:07:41;;;;;;;;;;;;;;;20.70;49.14;101654.63;2083450;28;3854;-75
2021/04/19 00:08:41;;;;;;;;;;;;;;;20.69;49.15;101645.25;2083440;28;3977;-79
2021/04/19 00:09:42;;;;;;;;;;;;;;;20.70;49.07;101648.94;2084300;28;4008;-84
2021/04/19 00:10:43;;;;;;;;;;;;;;;20.71;49.30;101641.25;2083963;28;3852;-76
2021/04/19 00:11:44;;;;;;;;;;;;;;;20.72;49.32;101646.59;2083967;28;3903;-77
2021/04/19 00:12:44;;;;;;;;;;;;;;;20.72;49.50;101645.78;2083221;28;3980;-76
2021/04/19 00:13:45;;;;;;;;;;;;;;;20.72;49.17;101646.59;2084440;28;3815;-76
2021/04/19 00:14:46;;;;;;;;;;;;;;;20.71;49.30;101644.94;2084574;28;3846;-77
2021/04/19 00:15:47;;;;;;;;;;;;;;;20.72;49.28;101648.59;2084750;28;4032;-76
2021/04/19 00:16:47;;;;;;;;;;;;;;;20.71;49.29;101639.25;2084825;28;4009;-76
2021/04/19 00:17:48;;;;;;;;;;;;;;;20.72;49.36;101652.28;2082282;28;3738;-77
2021/04/19 00:18:49;;;;;;;;;;;;;;;20.73;49.18;101653.97;2084376;28;3976;-76
2021/04/19 00:19:50;;;;;;;;;;;;;;;20.72;49.19;101646.59;2083341;28;4002;-77
2021/04/19 00:20:51;;;;;;;;;;;;;;;20.72;49.27;101645.78;2084425;28;4036;-77
2021/04/19 00:21:52;;;;;;;;;;;;;;;20.72;49.37;101649.44;2083990;28;4885;-76
2021/04/19 00:22:53;;;;;;;;;;;;;;;20.73;49.38;101650.28;2082912;28;4083;-77
2021/04/19 00:23:53;;;;;;;;;;;;;;;20.74;49.61;101652.81;2083479;28;4041;-76
2021/04/19 00:24:54;;;;;;;;;;;;;;;20.73;49.42;101644.59;2084612;28;4154;-76
2021/04/19 00:25:55;;;;;;;;;;;;;;;20.74;49.29;101647.13;2084733;28;3982;-78
2021/04/19 00:26:56;;;;;;;;;;;;;;;20.73;49.56;101642.59;2084754;28;4007;-75
2021/04/19 00:27:56;;;;;;;;;;;;;;;20.74;49.52;101646.28;2083722;28;3983;-75
2021/04/19 00:28:57;;;;;;;;;;;;;;;20.75;49.50;101645.94;2083849;28;3780;-77
2021/04/19 00:29:58;;;;;;;;;;;;;;;20.75;49.52;101643.09;2084200;28;4138;-77
2021/04/19 00:30:59;;;;;;;;;;;;;;;20.75;49.46;101642.25;2084196;28;3881;-75
2021/04/19 00:32:00;;;;;;;;;;;;;;;20.75;49.50;101637.41;2084952;28;3774;-75
2021/04/19 00:33:01;;;;;;;;;;;;;;;20.75;49.67;101639.41;2083255;28;4370;-77
2021/04/19 00:34:02;;;;;;;;;;;;;;;20.76;49.50;101633.41;2084841;28;4039;-77
2021/04/19 00:35:03;;;;;;;;;;;;;;;20.76;49.53;101636.25;2084193;28;3748;-75
2021/04/19 00:36:04;;;;;;;;;;;;;;;20.75;49.43;101639.41;2084580;28;4007;-75
2021/04/19 00:37:05;;;;;;;;;;;;;;;20.76;49.42;101639.09;2084300;28;4078;-75
2021/04/19 00:38:09;;;;;;;;;;;;;;;20.75;49.44;101643.09;2083676;28;4010;-75
2021/04/19 00:39:10;;;;;;;;;;;;;;;20.76;49.64;101638.22;2078900;28;4795;-74
2021/04/19 00:40:11;;;;;;;;;;;;;;;20.76;49.66;101641.94;2082590;28;3991;-74
2021/04/19 00:41:11;;;;;;;;;;;;;;;20.76;49.62;101635.38;2083364;28;3860;-75
2021/04/19 00:42:12;;;;;;;;;;;;;;;20.76;49.51;101639.09;2083956;28;4871;-75
2021/04/19 00:43:13;;;;;;;;;;;;;;;20.77;49.59;101634.25;2084893;28;4015;-75
2021/04/19 00:44:14;;;;;;;;;;;;;;;20.76;49.60;101644.78;2084209;28;3982;-75
2021/04/19 00:45:15;;;;;;;;;;;;;;;20.77;49.48;101637.91;2084178;28;5070;-74
2021/04/19 00:46:15;;;;;;;;;;;;;;;20.76;49.66;101639.09;2083976;28;3951;-76
2021/04/19 00:47:16;;;;;;;;;;;;;;;20.77;49.66;101637.09;2083936;28;4017;-75
2021/04/19 00:48:17;;;;;;;;;;;;;;;20.76;49.65;101635.38;2084332;28;3993;-74
2021/04/19 00:49:18;;;;;;;;;;;;;;;20.76;49.69;101635.38;2084682;28;3795;-75
2021/04/19 00:50:19;;;;;;;;;;;;;;;20.77;49.69;101637.91;2084631;28;4003;-75
2021/04/19 00:51:20;;;;;;;;;;;;;;;20.76;49.48;101639.09;2082324;28;3780;-75
2021/04/19 00:52:20;;;;;;;;;;;;;;;20.75;49.42;101637.41;2084296;28;3841;-74
2021/04/19 00:53:21;;;;;;;;;;;;;;;20.76;49.40;101643.91;2083206;28;3999;-73
2021/04/19 00:54:22;;;;;;;;;;;;;;;20.76;49.51;101641.06;2083546;28;3977;-74
2021/04/19 00:55:23;;;;;;;;;;;;;;;20.77;49.31;101639.94;2084037;28;4046;-74
2021/04/19 00:56:23;;;;;;;;;;;;;;;20.76;49.49;101638.22;2083592;28;3873;-80
2021/04/19 00:57:24;;;;;;;;;;;;;;;20.76;49.30;101639.09;2084401;28;3975;-75
2021/04/19 00:58:25;;;;;;;;;;;;;;;20.77;49.35;101637.09;2086611;28;3935;-74
2021/04/19 00:59:26;;;;;;;;;;;;;;;20.76;49.43;101630.56;2085090;28;3872;-77
2021/04/19 01:00:26;;;;;;;;;;;;;;;20.74;49.38;101630.06;2084707;28;3959;-73
2021/04/19 01:01:31;;;;;;;;;;;;;;;20.74;49.37;101629.22;2085654;28;3990;-75
2021/04/19 01:02:32;;;;;;;;;;;;;;;20.74;49.36;101637.75;2084080;28;4095;-74
2021/04/19 01:03:33;;;;;;;;;;;;;;;20.75;49.38;101633.72;2085778;28;3875;-74
2021/04/19 01:04:34;;;;;;;;;;;;;;;20.74;49.31;101635.75;2084406;28;3779;-74
2021/04/19 01:05:34;;;;;;;;;;;;;;;20.75;49.28;101633.72;2084450;28;4032;-75
2021/04/19 01:06:35;;;;;;;;;;;;;;;20.76;49.25;101647.63;2086360;28;3756;-74
2021/04/19 01:07:36;;;;;;;;;;;;;;;20.75;49.22;101640.25;2084545;28;3788;-74
2021/04/19 01:08:37;;;;;;;;;;;;;;;20.76;49.27;101650.47;2084285;28;4168;-74
2021/04/19 01:09:38;;;;;;;;;;;;;;;20.76;49.29;101647.63;2083799;28;4068;-74
2021/04/19 01:10:38;;;;;;;;;;;;;;;20.77;49.34;101645.63;2083319;28;3844;-74
2021/04/19 01:11:39;;;;;;;;;;;;;;;20.78;49.34;101641.59;2084000;28;3768;-74
2021/04/19 01:12:40;;;;;;;;;;;;;;;20.78;49.36;101648.13;2083663;28;3956;-74
2021/04/19 01:13:41;;;;;;;;;;;;;;;20.78;49.28;101645.25;2086204;28;3933;-74
2021/04/19 01:14:41;;;;;;;;;;;;;;;20.79;49.38;101641.28;2084150;28;3995;-74
2021/04/19 01:15:42;;;;;;;;;;;;;;;20.79;49.28;101646.97;2084466;28;4888;-74
2021/04/19 01:16:43;;;;;;;;;;;;;;;20.79;49.41;101655.50;2082364;28;4193;-76
2021/04/19 01:17:44;;;;;;;;;;;;;;;20.77;49.40;101642.78;2085320;28;3806;-74
2021/04/19 01:18:45;;;;;;;;;;;;;;;20.80;49.41;101648.63;2082195;28;3927;-74
2021/04/19 01:19:45;;;;;;;;;;;;;;;20.80;49.38;101645.78;2085114;28;5179;-74
2021/04/19 01:20:46;;;;;;;;;;;;;;;20.81;49.43;101640.91;2084421;28;4031;-74
2021/04/19 01:21:47;;;;;;;;;;;;;;;20.81;49.56;101641.75;2086090;28;4214;-74
2021/04/19 01:22:48;;;;;;;;;;;;;;;20.80;49.53;101640.09;2082324;28;3920;-73
2021/04/19 01:23:49;;;;;;;;;;;;;;;20.82;49.52;101648.31;2077911;28;4031;-74
2021/04/19 01:24:49;;;;;;;;;;;;;;;20.81;49.52;101646.63;2084872;28;3814;-72
2021/04/19 01:25:50;;;;;;;;;;;;;;;20.82;49.44;101649.13;2085596;28;3912;-72
2021/04/19 01:26:51;;;;;;;;;;;;;;;20.82;49.56;101654.81;2082569;28;4321;-74
2021/04/19 01:27:52;;;;;;;;;;;;;;;20.82;49.52;101651.16;2080325;28;3925;-74
2021/04/19 01:28:52;;;;;;;;;;;;;;;20.81;49.43;101647.44;2083553;28;3997;-73
2021/04/19 01:29:53;;;;;;;;;;;;;;;20.81;49.43;101653.13;2082672;28;3974;-73
2021/04/19 01:30:54;;;;;;;;;;;;;;;20.82;49.61;101656.84;2082339;28;4156;-73
2021/04/19 01:31:55;;;;;;;;;;;;;;;20.82;49.56;101657.66;2084767;28;3937;-73
2021/04/19 01:32:56;;;;;;;;;;;;;;;20.82;49.45;101654.81;2084064;28;4775;-73
2021/04/19 01:33:57;;;;;;;;;;;;;;;20.83;49.55;101655.66;2084140;28;3772;-73
2021/04/19 01:34:58;;;;;;;;;;;;;;;20.82;49.47;101657.66;2084213;28;3918;-73
2021/04/19 01:36:00;;;;;;;;;;;;;;;20.81;49.44;101653.13;2085752;28;4204;-74
2021/04/19 01:37:00;;;;;;;;;;;;;;;20.81;49.53;101650.28;2083708;28;3886;-74
2021/04/19 01:38:01;;;;;;;;;;;;;;;20.81;49.39;101647.44;2084265;28;4159;-75
2021/04/19 01:39:02;;;;;;;;;;;;;;;20.82;49.57;101654.00;2084513;28;4069;-74
2021/04/19 01:40:02;;;;;;;;;;;;;;;20.81;49.40;101650.28;2082778;28;3920;-75
2021/04/19 01:41:03;;;;;;;;;;;;;;;20.82;49.40;101648.31;2084350;28;4094;-74
2021/04/19 01:42:04;;;;;;;;;;;;;;;20.82;49.46;101648.31;2085007;28;3983;-74
2021/04/19 01:43:05;;;;;;;;;;;;;;;20.81;49.47;101649.44;2083528;28;4108;-74
2021/04/19 01:44:06;;;;;;;;;;;;;;;20.82;49.39;101648.31;2082945;28;3965;-76
2021/04/19 01:45:06;;;;;;;;;;;;;;;20.81;49.27;101647.44;2084137;28;3863;-76
2021/04/19 01:46:07;;;;;;;;;;;;;;;20.81;49.42;101655.97;2084184;28;4953;-76
2021/04/19 01:47:08;;;;;;;;;;;;;;;20.79;49.41;101655.50;2085195;28;3985;-77
2021/04/19 01:48:09;;;;;;;;;;;;;;;20.80;49.42;101650.63;2082414;28;4193;-74
2021/04/19 01:49:10;;;;;;;;;;;;;;;20.81;49.25;101655.13;2083788;28;4038;-74
2021/04/19 01:50:11;;;;;;;;;;;;;;;20.80;49.28;101647.78;2085638;28;4113;-74
2021/04/19 01:51:11;;;;;;;;;;;;;;;20.81;49.25;101649.44;2083781;28;5290;-74
2021/04/19 01:52:12;;;;;;;;;;;;;;;20.80;49.38;101651.47;2082756;28;4019;-75
2021/04/19 01:53:13;;;;;;;;;;;;;;;20.81;49.20;101649.44;2085348;28;4002;-74
2021/04/19 01:54:14;;;;;;;;;;;;;;;20.81;49.32;101641.75;2083909;28;4228;-74
2021/04/19 01:55:15;;;;;;;;;;;;;;;20.82;49.27;101642.63;2083380;28;4061;-74
2021/04/19 01:56:15;;;;;;;;;;;;;;;20.82;49.30;101640.59;2082257;28;3984;-75
2021/04/19 01:57:16;;;;;;;;;;;;;;;20.82;49.20;101637.75;2084489;28;4004;-77
2021/04/19 01:58:17;;;;;;;;;;;;;;;20.82;49.28;101640.59;2082480;28;5099;-79
2021/04/19 01:59:18;;;;;;;;;;;;;;;20.82;49.29;101646.28;2083323;28;3863;-80
2021/04/19 02:00:19;;;;;;;;;;;;;;;20.83;49.36;101644.28;2083710;28;3980;-76
2021/04/19 02:01:19;;;;;;;;;;;;;;;20.83;49.36;101639.41;2084374;28;3955;-76
2021/04/19 02:02:20;;;;;;;;;;;;;;;20.83;49.37;101642.28;2082698;28;3837;-76
2021/04/19 02:03:21;;;;;;;;;;;;;;;20.84;49.42;101643.97;2084736;28;3978;-75
2021/04/19 02:04:26;;;;;;;;;;;;;;;20.85;49.43;101648.47;2085113;28;3943;-76
2021/04/19 02:05:28;;;;;;;;;;;;;;;20.84;49.30;101646.81;2083905;28;3978;-74
2021/04/19 02:06:29;;;;;;;;;;;;;;;20.84;49.37;101645.94;2083290;28;3911;-75
2021/04/19 02:07:29;;;;;;;;;;;;;;;20.84;49.42;101641.13;2074839;28;4023;-74
2021/04/19 02:08:30;;;;;;;;;;;;;;;20.84;49.43;101645.94;2076340;28;4004;-76
2021/04/19 02:09:31;;;;;;;;;;;;;;;20.84;49.38;101652.50;2074353;28;4036;-76
2021/04/19 02:10:32;;;;;;;;;;;;;;;20.84;49.30;101645.94;2073817;28;3867;-75
2021/04/19 02:11:32;;;;;;;;;;;;;;;20.84;49.42;101643.09;2082980;28;3879;-74
2021/04/19 02:12:33;;;;;;;;;;;;;;;20.85;49.36;101647.63;2082264;28;4040;-75
2021/04/19 02:13:34;;;;;;;;;;;;;;;20.84;49.39;101640.25;2083974;28;3927;-75
2021/04/19 02:14:35;;;;;;;;;;;;;;;20.84;49.32;101640.25;2084465;28;4039;-75
2021/04/19 02:15:36;;;;;;;;;;;;;;;20.85;49.58;101648.47;2085243;28;3972;-76
2021/04/19 02:16:37;;;;;;;;;;;;;;;20.85;49.39;101645.63;2082746;28;4036;-75
2021/04/19 02:17:38;;;;;;;;;;;;;;;20.85;49.48;101642.78;2085031;28;3872;-75
2021/04/19 02:18:39;;;;;;;;;;;;;;;20.85;49.39;101642.78;2083165;28;4108;-77
2021/04/19 02:19:40;;;;;;;;;;;;;;;20.86;49.51;101640.78;2084350;28;3856;-79
2021/04/19 02:20:41;;;;;;;;;;;;;;;20.85;49.44;101642.78;2084711;28;5035;-75
2021/04/19 02:21:42;;;;;;;;;;;;;;;20.86;49.41;101643.63;2084562;28;3866;-75
2021/04/19 02:22:43;;;;;;;;;;;;;;;20.85;49.56;101648.47;2085103;28;3999;-75
2021/04/19 02:23:44;;;;;;;;;;;;;;;20.86;49.56;101652.16;2084759;28;4124;-75
2021/04/19 02:24:45;;;;;;;;;;;;;;;20.85;49.67;101651.31;2084345;28;3886;-75
2021/04/19 02:25:45;;;;;;;;;;;;;;;20.86;49.54;101652.16;2084038;28;3856;-76
2021/04/19 02:26:46;;;;;;;;;;;;;;;20.86;49.47;101655.00;2084294;28;4034;-74
2021/04/19 02:27:47;;;;;;;;;;;;;;;20.86;49.55;101647.28;2082680;28;4015;-74
2021/04/19 02:28:48;;;;;;;;;;;;;;;20.85;49.49;101642.78;2084751;28;3897;-77
2021/04/19 02:29:49;;;;;;;;;;;;;;;20.86;49.60;101649.31;2084538;28;3834;-78
2021/04/19 02:30:49;;;;;;;;;;;;;;;20.85;49.51;101642.78;2085196;28;4005;-77
2021/04/19 02:31:50;;;;;;;;;;;;;;;20.86;49.47;101643.63;2083928;28;4019;-75
2021/04/19 02:32:51;;;;;;;;;;;;;;;20.86;49.58;101655.81;2083772;28;3864;-78
2021/04/19 02:33:52;;;;;;;;;;;;;;;20.86;49.46;101647.28;2083081;28;4043;-74
2021/04/19 02:34:53;;;;;;;;;;;;;;;20.86;49.62;101644.44;2085158;28;3829;-76
2021/04/19 02:35:53;;;;;;;;;;;;;;;20.86;49.50;101646.47;2084250;28;5112;-72
2021/04/19 02:36:55;;;;;;;;;;;;;;;20.85;49.52;101650.47;2084454;28;4081;-74
2021/04/19 02:37:56;;;;;;;;;;;;;;;20.83;49.38;101649.97;2081815;28;4311;-73
2021/04/19 02:38:57;;;;;;;;;;;;;;;20.82;49.57;101648.31;2085396;28;4460;-73
2021/04/19 02:39:58;;;;;;;;;;;;;;;20.81;49.52;101652.31;2084731;28;5651;-71
2021/04/19 02:40:59;;;;;;;;;;;;;;;20.80;49.48;101654.31;2083138;28;3993;-72
2021/04/19 02:42:00;;;;;;;;;;;;;;;20.79;49.45;101649.81;2083590;28;4117;-72
2021/04/19 02:43:01;;;;;;;;;;;;;;;20.78;49.45;101656.63;2083927;28;4091;-73
2021/04/19 02:44:01;;;;;;;;;;;;;;;20.78;49.36;101653.81;2083015;28;4003;-70
2021/04/19 02:45:02;;;;;;;;;;;;;;;20.78;49.27;101652.97;2084471;28;3808;-80
2021/04/19 02:46:03;;;;;;;;;;;;;;;20.78;49.34;101650.13;2083896;28;4113;-74
2021/04/19 02:47:04;;;;;;;;;;;;;;;20.79;49.23;101654.66;2084956;28;4231;-74
2021/04/19 02:48:05;;;;;;;;;;;;;;;20.78;49.34;101648.13;2084114;28;3807;-74
2021/04/19 02:49:06;;;;;;;;;;;;;;;20.79;49.22;101652.66;2084239;28;4013;-72
2021/04/19 02:50:06;;;;;;;;;;;;;;;20.80;49.20;101653.47;2085404;28;4014;-73
2021/04/19 02:51:07;;;;;;;;;;;;;;;20.80;49.16;101651.47;2084075;28;5388;-74
2021/04/19 02:52:08;;;;;;;;;;;;;;;20.80;49.06;101651.47;2084722;28;4081;-74
2021/04/19 02:53:09;;;;;;;;;;;;;;;20.82;49.16;101657.66;2083098;28;3859;-74
2021/04/19 02:54:09;;;;;;;;;;;;;;;20.82;49.33;101645.47;2083041;28;4259;-74
2021/04/19 02:55:10;;;;;;;;;;;;;;;20.84;49.32;101661.03;2083797;28;3986;-76
2021/04/19 02:56:11;;;;;;;;;;;;;;;20.84;49.35;101652.50;2084174;28;3907;-75
2021/04/19 02:57:11;;;;;;;;;;;;;;;20.83;49.46;101656.50;2085516;28;3988;-74
2021/04/19 02:58:12;;;;;;;;;;;;;;;20.85;49.98;101657.00;2084095;28;3821;-73
2021/04/19 02:59:13;;;;;;;;;;;;;;;20.87;50.43;101645.31;2083797;28;3854;-73
2021/04/19 03:00:14;;;;;;;;;;;;;;;20.89;51.24;101642.94;2084511;28;4025;-74
2021/04/19 03:01:14;;;;;;;;;;;;;;;20.89;51.66;101646.63;2085031;28;4039;-75
2021/04/19 03:02:15;;;;;;;;;;;;;;;20.91;52.23;101641.44;2083569;28;3930;-73
2021/04/19 03:03:16;;;;;;;;;;;;;;;20.91;52.53;101641.44;2084932;28;3981;-74
2021/04/19 03:04:17;;;;;;;;;;;;;;;20.91;52.27;101638.59;2085228;28;3810;-74
2021/04/19 03:05:18;;;;;;;;;;;;;;;20.93;52.54;101645.97;2085446;28;3831;-74
2021/04/19 03:06:19;;;;;;;;;;;;;;;20.92;52.37;101642.28;2084381;28;3957;-75
2021/04/19 03:07:20;;;;;;;;;;;;;;;20.93;52.67;101640.28;2083762;28;3814;-75
2021/04/19 03:08:20;;;;;;;;;;;;;;;20.93;52.51;101637.44;2085080;28;3977;-75
2021/04/19 03:09:21;;;;;;;;;;;;;;;20.91;52.70;101641.44;2083826;28;3763;-74
2021/04/19 03:10:22;;;;;;;;;;;;;;;20.93;52.67;101643.13;2084717;28;3996;-73
2021/04/19 03:11:23;;;;;;;;;;;;;;;20.91;52.67;101641.44;2083487;28;4009;-75
2021/04/19 03:12:23;;;;;;;;;;;;;;;20.92;52.66;101642.28;2083061;28;3948;-75
2021/04/19 03:13:25;;;;;;;;;;;;;;;20.93;52.69;101637.44;2083721;28;3831;-75
2021/04/19 03:14:26;;;;;;;;;;;;;;;20.91;52.74;101630.06;2076256;28;3844;-74
2021/04/19 03:15:27;;;;;;;;;;;;;;;20.91;52.62;101637.75;2075937;28;3974;-72
2021/04/19 03:16:27;;;;;;;;;;;;;;;20.93;52.61;101637.44;2084350;28;3797;-72
2021/04/19 03:17:29;;;;;;;;;;;;;;;20.92;52.72;101636.59;2084552;28;4884;-73
2021/04/19 03:18:30;;;;;;;;;;;;;;;20.91;52.63;101632.91;2084247;28;4170;-73
2021/04/19 03:19:31;;;;;;;;;;;;;;;20.91;52.50;101635.75;2084135;28;4362;-72
2021/04/19 03:20:32;;;;;;;;;;;;;;;20.91;52.48;101641.44;2084230;28;3902;-73
2021/04/19 03:21:34;;;;;;;;;;;;;;;20.91;52.66;101641.44;2084147;28;3863;-74
2021/04/19 03:22:34;;;;;;;;;;;;;;;20.91;52.60;101635.75;2083740;28;4009;-74
2021/04/19 03:23:35;;;;;;;;;;;;;;;20.91;52.50;101635.75;2083843;28;4073;-75
2021/04/19 03:24:36;;;;;;;;;;;;;;;20.92;52.63;101633.75;2083596;28;4018;-73
2021/04/19 03:25:37;;;;;;;;;;;;;;;20.91;52.50;101634.94;2084487;28;3848;-73
2021/04/19 03:26:37;;;;;;;;;;;;;;;20.91;52.48;101634.94;2083985;28;4212;-74
2021/04/19 03:27:38;;;;;;;;;;;;;;;20.91;52.58;101634.94;2083826;28;3843;-90
2021/04/19 03:28:39;;;;;;;;;;;;;;;20.90;52.58;101636.09;2084461;28;4054;-76
2021/04/19 03:29:41;;;;;;;;;;;;;;;20.91;52.58;101637.75;2083783;28;4985;-75
2021/04/19 03:30:41;;;;;;;;;;;;;;;20.89;52.50;101638.09;2083854;28;4013;-74
2021/04/19 03:31:42;;;;;;;;;;;;;;;20.89;52.63;101638.09;2085146;28;4077;-77
2021/04/19 03:32:43;;;;;;;;;;;;;;;20.90;52.65;101638.94;2085086;28;3983;-79
2021/04/19 03:33:45;;;;;;;;;;;;;;;20.91;52.62;101635.75;2082849;28;4053;-73
2021/04/19 03:34:45;;;;;;;;;;;;;;;20.90;52.51;101634.09;2084023;28;3785;-73
2021/04/19 03:35:46;;;;;;;;;;;;;;;20.91;52.53;101647.13;2083795;28;3900;-73
2021/04/19 03:36:47;;;;;;;;;;;;;;;20.91;52.56;101632.06;2084202;28;4081;-74
2021/04/19 03:37:48;;;;;;;;;;;;;;;20.92;52.41;101645.13;2084283;28;3883;-72
2021/04/19 03:38:48;;;;;;;;;;;;;;;20.92;52.43;101642.28;2077405;28;4171;-73
2021/04/19 03:39:49;;;;;;;;;;;;;;;20.91;52.84;101649.97;2085028;28;4194;-73
2021/04/19 03:40:50;;;;;;;;;;;;;;;20.93;52.44;101645.97;2083540;28;3874;-73
2021/04/19 03:41:51;;;;;;;;;;;;;;;20.93;52.73;101643.97;2083572;28;3942;-73
2021/04/19 03:42:52;;;;;;;;;;;;;;;20.93;52.57;101646.81;2084614;28;3769;-74
2021/04/19 03:43:53;;;;;;;;;;;;;;;20.93;52.50;101649.66;2083872;28;4028;-73
2021/04/19 03:44:53;;;;;;;;;;;;;;;20.93;52.53;101641.13;2084199;28;3857;-73
2021/04/19 03:45:54;;;;;;;;;;;;;;;20.94;52.64;101641.97;2075417;28;3924;-73
2021/04/19 03:46:55;;;;;;;;;;;;;;;20.94;52.71;101642.78;2074321;28;3860;-73
2021/04/19 03:47:56;;;;;;;;;;;;;;;20.94;52.51;101641.97;2084758;28;4022;-73
2021/04/19 03:48:57;;;;;;;;;;;;;;;20.94;52.75;101644.81;2083370;28;3941;-74
2021/04/19 03:49:58;;;;;;;;;;;;;;;20.94;52.50;101639.13;2084149;28;4002;-73
2021/04/19 03:50:59;;;;;;;;;;;;;;;20.94;52.59;101639.13;2083808;28;3888;-72
2021/04/19 03:51:59;;;;;;;;;;;;;;;20.94;52.57;101634.25;2085328;28;3911;-73
2021/04/19 03:53:00;;;;;;;;;;;;;;;20.95;52.60;101643.63;2083655;28;4004;-73
2021/04/19 03:54:01;;;;;;;;;;;;;;;20.95;52.71;101643.63;2083219;28;4011;-73
2021/04/19 03:55:02;;;;;;;;;;;;;;;20.95;52.68;101643.63;2084364;28;4104;-73
2021/04/19 03:56:02;;;;;;;;;;;;;;;20.95;52.71;101646.47;2085153;28;3987;-73
2021/04/19 03:57:03;;;;;;;;;;;;;;;20.95;52.82;101652.16;2083670;28;4056;-74
2021/04/19 03:58:04;;;;;;;;;;;;;;;20.95;52.62;101653.03;2083298;28;4009;-74
2021/04/19 03:59:05;;;;;;;;;;;;;;;20.96;52.70;101651.00;2084712;28;4005;-74
2021/04/19 04:00:05;;;;;;;;;;;;;;;20.96;52.64;101651.00;2083814;28;3952;-73
2021/04/19 04:01:06;;;;;;;;;;;;;;;20.94;52.91;101647.66;2083331;28;4004;-73
2021/04/19 04:02:08;;;;;;;;;;;;;;;20.95;52.88;101653.03;2082615;28;3762;-73
2021/04/19 04:03:09;;;;;;;;;;;;;;;20.96;52.79;101648.16;2084754;28;4325;-72
2021/04/19 04:04:14;;;;;;;;;;;;;;;20.95;52.85;101647.31;2083498;28;4772;-72
2021/04/19 04:05:15;;;;;;;;;;;;;;;20.96;52.83;101656.69;2084432;28;6101;-73
2021/04/19 04:06:15;;;;;;;;;;;;;;;20.97;52.88;101658.34;2074989;28;3967;-73
2021/04/19 04:07:16;;;;;;;;;;;;;;;20.96;52.78;101665.22;2075631;28;3980;-71
2021/04/19 04:08:17;;;;;;;;;;;;;;;20.95;52.75;101663.53;2083627;28;3814;-71
2021/04/19 04:09:18;;;;;;;;;;;;;;;20.96;52.58;101665.22;2083295;28;4318;-71
2021/04/19 04:10:19;;;;;;;;;;;;;;;20.96;52.49;101670.91;2083235;28;3822;-75
2021/04/19 04:11:20;;;;;;;;;;;;;;;20.96;52.60;101659.53;2084366;28;3837;-75
2021/04/19 04:12:20;;;;;;;;;;;;;;;20.96;52.74;101665.22;2082736;28;5017;-75
2021/04/19 04:13:21;;;;;;;;;;;;;;;20.96;52.55;101670.91;2085427;28;4021;-73
2021/04/19 04:14:22;;;;;;;;;;;;;;;20.95;52.52;101663.53;2075885;28;3749;-76
2021/04/19 04:15:22;;;;;;;;;;;;;;;20.95;52.56;101664.41;2074288;28;3798;-74
2021/04/19 04:16:23;;;;;;;;;;;;;;;20.96;52.49;101670.91;2084630;28;3787;-79
2021/04/19 04:17:24;;;;;;;;;;;;;;;20.96;52.59;101665.22;2084140;28;3913;-77
2021/04/19 04:18:25;;;;;;;;;;;;;;;20.96;52.59;101659.53;2083436;28;3758;-76
2021/04/19 04:19:26;;;;;;;;;;;;;;;20.96;52.58;101662.38;2083875;28;3781;-73
2021/04/19 04:20:27;;;;;;;;;;;;;;;20.96;52.52;101665.22;2083091;28;3887;-78
2021/04/19 04:21:28;;;;;;;;;;;;;;;20.96;52.56;101666.06;2084250;28;3964;-78
2021/04/19 04:22:28;;;;;;;;;;;;;;;20.97;52.42;101664.88;2085196;28;3943;-77
2021/04/19 04:23:29;;;;;;;;;;;;;;;20.97;52.61;101664.03;2083984;28;3967;-79
2021/04/19 04:24:30;;;;;;;;;;;;;;;20.97;52.49;101652.66;2083846;28;3927;-74
2021/04/19 04:25:31;;;;;;;;;;;;;;;20.97;52.55;101658.34;2084223;28;4183;-73
2021/04/19 04:26:31;;;;;;;;;;;;;;;20.97;52.60;101650.66;2084655;28;4251;-74
2021/04/19 04:27:32;;;;;;;;;;;;;;;20.98;52.67;101648.63;2083957;28;3967;-75
2021/04/19 04:28:33;;;;;;;;;;;;;;;20.98;52.63;101648.63;2085133;28;5149;-74
2021/04/19 04:29:35;;;;;;;;;;;;;;;20.97;52.60;101650.66;2084392;28;4044;-73
2021/04/19 04:30:36;;;;;;;;;;;;;;;20.97;52.62;101644.97;2086213;28;4285;-74
2021/04/19 04:31:36;;;;;;;;;;;;;;;20.97;52.69;101644.97;2086383;28;3941;-76
2021/04/19 04:32:37;;;;;;;;;;;;;;;20.98;52.56;101651.47;2085867;28;3853;-78
2021/04/19 04:33:38;;;;;;;;;;;;;;;20.97;52.65;101650.66;2086576;28;3870;-77
2021/04/19 04:34:39;;;;;;;;;;;;;;;20.98;52.54;101655.19;2085828;28;3786;-74
2021/04/19 04:35:40;;;;;;;;;;;;;;;20.99;52.79;101664.56;2075678;28;3868;-73
2021/04/19 04:36:41;;;;;;;;;;;;;;;20.99;52.74;101653.19;2077141;28;4002;-74
2021/04/19 04:37:42;;;;;;;;;;;;;;;20.99;52.75;101654.00;2084774;28;3775;-74
2021/04/19 04:38:43;;;;;;;;;;;;;;;20.98;52.73;101651.47;2086171;28;4107;-73
2021/04/19 04:39:44;;;;;;;;;;;;;;;20.98;52.56;101655.19;2084091;28;5075;-74
2021/04/19 04:40:45;;;;;;;;;;;;;;;20.98;52.67;101655.19;2084226;28;3892;-72
2021/04/19 04:41:46;;;;;;;;;;;;;;;20.98;52.79;101657.19;2084287;28;4078;-73
2021/04/19 04:42:47;;;;;;;;;;;;;;;20.98;52.77;101663.72;2086038;28;3825;-75
2021/04/19 04:43:48;;;;;;;;;;;;;;;20.98;52.76;101666.56;2085321;28;4030;-77
2021/04/19 04:44:48;;;;;;;;;;;;;;;20.99;52.69;101664.56;2084552;28;4017;-75
2021/04/19 04:45:49;;;;;;;;;;;;;;;20.98;52.67;101669.41;2084853;28;3990;-74
2021/04/19 04:46:50;;;;;;;;;;;;;;;20.98;52.73;101665.72;2085916;28;3787;-72
2021/04/19 04:47:51;;;;;;;;;;;;;;;20.99;52.66;101678.78;2085893;28;4116;-72
2021/04/19 04:48:52;;;;;;;;;;;;;;;20.99;52.62;101682.47;2086100;28;3867;-72
2021/04/19 04:49:53;;;;;;;;;;;;;;;21.00;52.79;101677.59;2086026;28;3849;-72
2021/04/19 04:50:54;;;;;;;;;;;;;;;21.00;52.79;101678.44;2084980;28;4125;-72
2021/04/19 04:51:55;;;;;;;;;;;;;;;20.99;52.62;101676.78;2085469;28;4111;-72
2021/04/19 04:52:55;;;;;;;;;;;;;;;20.98;52.76;101675.09;2085878;28;3858;-74
2021/04/19 04:53:56;;;;;;;;;;;;;;;20.99;52.83;101678.78;2085298;28;3932;-74
2021/04/19 04:54:57;;;;;;;;;;;;;;;21.00;52.77;101674.75;2086483;28;3901;-74
2021/04/19 04:55:58;;;;;;;;;;;;;;;20.99;52.90;101673.09;2085581;28;3853;-74
2021/04/19 04:56:58;;;;;;;;;;;;;;;21.00;52.80;101672.75;2085784;28;3868;-74
2021/04/19 04:57:59;;;;;;;;;;;;;;;21.00;52.83;101671.91;2081482;28;3901;-74
2021/04/19 04:59:00;;;;;;;;;;;;;;;21.00;52.86;101677.59;2085779;28;3765;-67
2021/04/19 05:00:00;;;;;;;;;;;;;;;21.00;52.63;101683.28;2085076;28;4910;-69
2021/04/19 05:01:01;;;;;;;;;;;;;;;20.99;52.76;101673.94;2080305;28;3854;-75
2021/04/19 05:02:02;;;;;;;;;;;;;;;20.99;52.74;101676.78;2086314;28;3987;-70
2021/04/19 05:03:03;;;;;;;;;;;;;;;21.00;52.67;101666.22;2086597;28;5175;-73
2021/04/19 05:04:04;;;;;;;;;;;;;;;20.99;52.74;101671.06;2086153;28;4009;-72
2021/04/19 05:05:05;;;;;;;;;;;;;;;21.00;52.71;101669.06;2085945;28;5167;-70
2021/04/19 05:06:07;;;;;;;;;;;;;;;21.00;52.60;101674.75;2085656;28;4002;-73
2021/04/19 05:07:08;;;;;;;;;;;;;;;21.00;52.72;101671.91;2085370;28;4064;-69
2021/04/19 05:08:08;;;;;;;;;;;;;;;21.00;52.82;101671.91;2085384;28;4062;-72
2021/04/19 05:09:09;;;;;;;;;;;;;;;21.00;52.63;101677.59;2086140;28;4423;-71
2021/04/19 05:10:10;;;;;;;;;;;;;;;20.99;52.72;101675.94;2084104;28;4014;-71
2021/04/19 05:11:11;;;;;;;;;;;;;;;21.00;52.68;101677.59;2083999;28;3845;-71
2021/04/19 05:12:12;;;;;;;;;;;;;;;21.00;52.66;101680.44;2085493;28;4104;-71
2021/04/19 05:13:12;;;;;;;;;;;;;;;20.99;52.65;101667.41;2085876;28;4006;-70
2021/04/19 05:14:13;;;;;;;;;;;;;;;21.01;52.70;101679.28;2086280;28;3993;-68
2021/04/19 05:15:14;;;;;;;;;;;;;;;21.00;52.77;101675.59;2085455;28;3842;-72
2021/04/19 05:16:14;;;;;;;;;;;;;;;21.00;52.67;101674.75;2083749;28;4831;-74
2021/04/19 05:17:15;;;;;;;;;;;;;;;21.00;52.68;101672.75;2083837;28;4988;-74